createdAt,value
2023-05-06T00:01:19.633Z,2.70
2023-05-06T00:03:46.442Z,2.53
2023-05-06T00:06:13.500Z,2.22
2023-05-06T00:08:40.138Z,2.75
2023-05-06T00:11:06.583Z,2.67
2023-05-06T00:13:33.048Z,2.60
2023-05-06T00:15:59.556Z,2.75
2023-05-06T00:18:26.107Z,2.80
2023-05-06T00:20:52.582Z,3.13
2023-05-06T00:23:18.982Z,2.85
2023-05-06T00:25:45.687Z,3.20
2023-05-06T00:28:12.164Z,3.78
2023-05-06T00:30:38.564Z,3.47
2023-05-06T00:33:05.046Z,3.42
2023-05-06T00:35:31.521Z,3.85
2023-05-06T00:38:06.176Z,3.40
2023-05-06T00:40:32.628Z,3.78
2023-05-06T00:42:59.158Z,3.92
2023-05-06T00:45:25.784Z,4.00
2023-05-06T00:47:52.936Z,4.18
2023-05-06T00:50:19.764Z,4.43
2023-05-06T00:52:46.542Z,3.92
2023-05-06T00:55:13.210Z,3.72
2023-05-06T00:57:40.358Z,3.90
2023-05-06T01:00:07.756Z,4.15
2023-05-06T01:02:46.427Z,4.13
2023-05-06T01:05:15.790Z,3.95
2023-05-06T01:07:45.546Z,4.30
2023-05-06T01:10:31.216Z,3.95
2023-05-06T01:13:09.828Z,4.63
2023-05-06T01:15:40.976Z,4.30
2023-05-06T01:18:13.638Z,5.20
2023-05-06T01:20:42.234Z,3.95
2023-05-06T01:23:13.046Z,4.07
2023-05-06T01:25:39.860Z,4.63
2023-05-06T01:28:10.229Z,4.20
2023-05-06T01:31:03.725Z,4.20
2023-05-06T01:33:46.432Z,4.30
2023-05-06T01:36:29.490Z,4.45
2023-05-06T01:39:09.239Z,4.85
2023-05-06T01:41:38.969Z,4.67
2023-05-06T01:44:07.698Z,4.78
2023-05-06T01:46:35.272Z,4.63
2023-05-06T01:49:05.625Z,5.28
2023-05-06T01:51:33.862Z,5.30
2023-05-06T01:54:01.513Z,4.93
2023-05-06T01:56:30.289Z,5.53
2023-05-06T01:58:59.744Z,5.50
2023-05-06T02:01:26.678Z,6.25
2023-05-06T02:03:53.456Z,5.18
2023-05-06T02:06:20.007Z,5.63
2023-05-06T02:08:46.997Z,6.57
2023-05-06T02:11:13.590Z,6.53
2023-05-06T02:13:40.222Z,5.72
2023-05-06T02:16:07.341Z,5.43
2023-05-06T02:18:33.871Z,5.17
2023-05-06T02:21:01.013Z,5.40
2023-05-06T02:23:27.489Z,5.13
2023-05-06T02:25:53.890Z,5.35
2023-05-06T02:28:20.592Z,5.20
2023-05-06T02:30:46.994Z,4.20
2023-05-06T02:33:13.559Z,4.20
2023-05-06T02:35:40.149Z,3.67
2023-05-06T02:38:06.548Z,3.25
2023-05-06T02:40:33.042Z,2.65
2023-05-06T02:42:59.476Z,2.47
2023-05-06T02:45:25.984Z,2.92
2023-05-06T02:47:52.446Z,3.15
2023-05-06T02:50:18.926Z,3.10
2023-05-06T02:52:45.431Z,2.63
2023-05-06T02:55:12.077Z,2.67
2023-05-06T02:57:38.615Z,2.58
2023-05-06T03:00:06.519Z,3.10
2023-05-06T03:02:33.090Z,3.50
2023-05-06T03:04:59.604Z,4.20
2023-05-06T03:07:26.063Z,4.40
2023-05-06T03:09:52.428Z,4.65
2023-05-06T03:12:18.842Z,5.15
2023-05-06T03:14:45.230Z,6.28
2023-05-06T03:17:11.697Z,4.30
2023-05-06T03:19:38.210Z,5.90
2023-05-06T03:22:04.634Z,4.97
2023-05-06T03:24:31.109Z,4.82
2023-05-06T03:26:58.514Z,3.78
2023-05-06T03:29:25.044Z,3.75
2023-05-06T03:31:52.580Z,3.33
2023-05-06T03:34:19.155Z,4.97
2023-05-06T03:36:45.953Z,3.45
2023-05-06T03:39:12.567Z,3.38
2023-05-06T03:41:39.179Z,3.20
2023-05-06T03:44:05.729Z,3.00
2023-05-06T03:46:32.777Z,3.40
2023-05-06T03:49:00.643Z,2.88
2023-05-06T03:51:27.606Z,3.20
2023-05-06T03:53:54.972Z,3.88
2023-05-06T03:56:22.207Z,3.70
2023-05-06T03:58:49.094Z,4.60
2023-05-06T04:01:17.266Z,3.47
2023-05-06T04:03:44.476Z,3.25
2023-05-06T04:06:10.942Z,3.70
2023-05-06T04:08:37.463Z,3.73
2023-05-06T04:11:05.312Z,3.40
2023-05-06T04:13:32.456Z,4.70
2023-05-06T04:15:59.024Z,3.83
2023-05-06T04:18:25.587Z,4.53
2023-05-06T04:20:52.079Z,4.03
2023-05-06T04:23:18.755Z,3.90
2023-05-06T04:25:51.208Z,3.70
2023-05-06T04:28:17.782Z,3.83
2023-05-06T04:30:45.488Z,4.88
2023-05-06T04:33:12.679Z,4.60
2023-05-06T04:35:39.843Z,4.28
2023-05-06T04:38:06.654Z,3.85
2023-05-06T04:40:36.498Z,4.35
2023-05-06T04:43:03.023Z,4.60
2023-05-06T04:45:29.803Z,4.60
2023-05-06T04:47:56.590Z,4.75
2023-05-06T04:50:23.065Z,5.57
2023-05-06T04:52:49.650Z,4.95
2023-05-06T04:55:16.136Z,5.50
2023-05-06T04:57:42.556Z,6.60
2023-05-06T05:00:10.662Z,8.00
2023-05-06T05:02:37.690Z,7.07
2023-05-06T05:05:04.550Z,8.55
2023-05-06T05:07:31.087Z,8.63
2023-05-06T05:09:57.647Z,8.07
2023-05-06T05:12:24.087Z,9.07
2023-05-06T05:14:51.241Z,7.28
2023-05-06T05:17:17.873Z,7.90
2023-05-06T05:19:44.350Z,7.35
2023-05-06T05:22:11.156Z,7.57
2023-05-06T05:24:37.652Z,7.82
2023-05-06T05:27:04.190Z,7.90
2023-05-06T05:29:30.834Z,7.60
2023-05-06T05:31:57.262Z,7.55
2023-05-06T05:34:23.671Z,8.00
2023-05-06T05:36:50.119Z,7.25
2023-05-06T05:39:16.627Z,7.50
2023-05-06T05:41:43.083Z,7.40
2023-05-06T05:44:09.664Z,7.50
2023-05-06T05:46:36.146Z,8.10
2023-05-06T05:49:02.900Z,8.05
2023-05-06T05:51:29.342Z,7.45
2023-05-06T05:53:55.935Z,8.27
2023-05-06T05:56:22.530Z,8.38
2023-05-06T05:58:49.499Z,7.73
2023-05-06T06:01:16.306Z,8.32
2023-05-06T06:03:43.211Z,8.88
2023-05-06T06:06:10.257Z,8.15
2023-05-06T06:08:36.709Z,8.52
2023-05-06T06:11:04.520Z,8.40
2023-05-06T06:13:31.506Z,7.75
2023-05-06T06:15:58.931Z,8.52
2023-05-06T06:18:25.897Z,8.43
2023-05-06T06:20:53.432Z,8.57
2023-05-06T06:23:21.207Z,8.40
2023-05-06T06:25:47.990Z,8.43
2023-05-06T06:28:17.674Z,9.43
2023-05-06T06:30:44.374Z,9.00
2023-05-06T06:33:11.371Z,10.07
2023-05-06T06:35:37.814Z,9.67
2023-05-06T06:38:04.233Z,8.52
2023-05-06T06:40:30.682Z,9.52
2023-05-06T06:42:57.353Z,9.23
2023-05-06T06:45:24.023Z,8.75
2023-05-06T06:47:50.545Z,9.67
2023-05-06T06:50:17.481Z,9.40
2023-05-06T06:52:44.535Z,9.75
2023-05-06T06:55:11.673Z,9.43
2023-05-06T06:57:39.829Z,9.35
2023-05-06T07:00:07.019Z,9.97
2023-05-06T07:02:33.454Z,9.25
2023-05-06T07:05:00.199Z,10.30
2023-05-06T07:07:26.672Z,9.90
2023-05-06T07:09:53.157Z,9.68
2023-05-06T07:12:19.822Z,9.77
2023-05-06T07:14:46.618Z,9.93
2023-05-06T07:17:13.320Z,10.52
2023-05-06T07:19:40.125Z,9.60
2023-05-06T07:22:08.020Z,9.98
2023-05-06T07:24:34.661Z,9.77
2023-05-06T07:27:01.991Z,10.82
2023-05-06T07:29:28.709Z,10.27
2023-05-06T07:31:55.277Z,10.43
2023-05-06T07:34:22.080Z,9.57
2023-05-06T07:36:48.743Z,10.73
2023-05-06T07:39:15.351Z,10.15
2023-05-06T07:41:41.884Z,11.15
2023-05-06T07:44:08.309Z,10.30
2023-05-06T07:46:35.070Z,11.00
2023-05-06T07:49:01.840Z,10.30
2023-05-06T07:51:28.347Z,11.48
2023-05-06T07:53:55.013Z,11.15
2023-05-06T07:56:21.451Z,10.50
2023-05-06T07:58:49.998Z,10.30
2023-05-06T08:01:20.280Z,11.50
2023-05-06T08:03:46.931Z,9.98
2023-05-06T08:06:16.798Z,11.60
2023-05-06T08:08:43.556Z,10.52
2023-05-06T08:11:11.006Z,11.18
2023-05-06T08:13:38.624Z,10.83
2023-05-06T08:16:06.989Z,9.90
2023-05-06T08:18:33.935Z,10.90
2023-05-06T08:21:02.086Z,10.65
2023-05-06T08:23:28.829Z,11.38
2023-05-06T08:26:08.126Z,10.70
2023-05-06T08:28:40.234Z,11.07
2023-05-06T08:31:17.733Z,10.63
2023-05-06T08:40:52.301Z,12.00
2023-05-06T08:43:25.027Z,11.70
2023-05-06T08:45:51.740Z,11.55
2023-05-06T08:48:18.390Z,11.95
2023-05-06T08:50:45.023Z,11.55
2023-05-06T08:53:17.262Z,10.80
2023-05-06T08:55:45.636Z,10.77
2023-05-06T08:58:16.798Z,11.10
2023-05-06T09:00:43.772Z,10.45
2023-05-06T09:03:13.092Z,11.10
2023-05-06T09:05:40.073Z,10.93
2023-05-06T09:08:07.926Z,11.63
2023-05-06T09:10:45.618Z,12.68
2023-05-06T09:13:17.652Z,11.98
2023-05-06T09:15:49.921Z,12.75
2023-05-06T09:18:17.175Z,12.07
2023-05-06T09:20:48.757Z,11.95
2023-05-06T09:23:16.806Z,12.27
2023-05-06T09:25:46.080Z,11.52
2023-05-06T09:28:13.754Z,11.48
2023-05-06T09:30:45.047Z,10.70
2023-05-06T09:33:12.010Z,11.43
2023-05-06T09:35:40.878Z,10.00
2023-05-06T09:38:10.065Z,11.15
2023-05-06T09:40:37.353Z,11.95
2023-05-06T09:43:06.032Z,10.73
2023-05-06T09:45:33.081Z,11.48
2023-05-06T09:48:01.072Z,10.65
2023-05-06T09:50:28.440Z,10.40
2023-05-06T09:52:56.338Z,10.50
2023-05-06T09:55:26.563Z,10.97
2023-05-06T09:57:54.020Z,10.60
2023-05-06T10:00:26.905Z,11.52
2023-05-06T10:02:54.832Z,11.32
2023-05-06T10:05:24.836Z,11.35
2023-05-06T10:07:53.380Z,10.27
2023-05-06T10:10:20.593Z,11.82
2023-05-06T10:12:48.855Z,10.38
2023-05-06T10:15:15.463Z,10.10
2023-05-06T10:17:48.310Z,10.00
2023-05-06T10:20:16.683Z,10.47
2023-05-06T10:23:07.831Z,11.38
2023-05-06T10:25:39.710Z,10.90
2023-05-06T10:28:11.401Z,10.02
2023-05-06T10:30:45.077Z,8.75
2023-05-06T10:33:13.368Z,9.03
2023-05-06T10:36:13.678Z,9.00
2023-05-06T10:38:51.570Z,8.82
2023-05-06T10:41:18.634Z,10.27
2023-05-06T10:43:45.418Z,7.22
2023-05-06T10:46:16.866Z,7.67
2023-05-06T10:49:14.196Z,7.13
2023-05-06T10:51:45.899Z,7.85
2023-05-06T10:54:22.566Z,7.35
2023-05-06T10:57:00.523Z,8.30
2023-05-06T10:59:34.657Z,6.50
2023-05-06T11:02:11.599Z,6.10
2023-05-06T11:05:02.258Z,5.95
2023-05-06T11:07:31.911Z,4.95
2023-05-06T11:20:36.031Z,4.32
2023-05-06T11:29:10.130Z,5.27
2023-05-06T11:31:41.812Z,5.50
2023-05-06T11:34:38.611Z,5.90
2023-05-06T11:37:21.571Z,5.63
2023-05-06T11:42:44.679Z,5.97
2023-05-06T11:45:19.487Z,7.28
2023-05-06T11:47:48.123Z,6.55
2023-05-06T11:50:14.905Z,6.20
2023-05-06T11:52:41.625Z,5.35
2023-05-06T11:55:09.964Z,5.53
2023-05-06T11:57:36.500Z,5.57
2023-05-06T12:00:05.268Z,5.55
2023-05-06T12:02:31.860Z,6.30
2023-05-06T12:04:58.816Z,5.60
2023-05-06T12:07:25.803Z,5.73
2023-05-06T12:09:52.470Z,5.85
2023-05-06T12:12:28.033Z,5.38
2023-05-06T12:14:54.809Z,5.82
2023-05-06T12:17:21.928Z,5.43
2023-05-06T12:19:51.527Z,5.67
2023-05-06T12:22:20.330Z,5.30
2023-05-06T12:24:49.276Z,5.30
2023-05-06T12:28:12.931Z,6.40
2023-05-06T12:30:42.809Z,5.10
2023-05-06T12:33:28.052Z,5.13
2023-05-06T12:37:03.545Z,4.05
2023-05-06T12:40:39.096Z,4.45
2023-05-06T12:43:09.033Z,4.95
2023-05-06T12:45:57.809Z,4.80
2023-05-06T12:48:27.931Z,5.50
2023-05-06T12:50:54.618Z,6.45
2023-05-06T12:54:43.838Z,6.70
2023-05-06T12:57:44.831Z,6.30
2023-05-06T13:00:14.381Z,6.43
2023-05-06T13:02:48.179Z,7.07
2023-05-06T13:05:26.764Z,6.32
2023-05-06T13:07:54.146Z,7.43
2023-05-06T13:10:20.751Z,6.63
2023-05-06T13:12:47.521Z,7.28
2023-05-06T13:15:14.329Z,6.83
2023-05-06T13:17:41.136Z,6.85
2023-05-06T13:20:08.398Z,7.47
2023-05-06T13:22:47.006Z,6.55
2023-05-06T13:25:20.001Z,7.05
2023-05-06T13:27:46.401Z,6.57
2023-05-06T13:30:13.643Z,6.43
2023-05-06T13:32:40.269Z,5.38
2023-05-06T13:35:07.063Z,5.25
2023-05-06T13:37:33.563Z,5.78
2023-05-06T13:40:06.205Z,5.43
2023-05-06T13:42:33.187Z,6.03
2023-05-06T13:44:59.736Z,5.15
2023-05-06T13:47:26.788Z,5.22
2023-05-06T13:49:53.562Z,4.07
2023-05-06T13:52:20.358Z,3.97
2023-05-06T13:54:47.222Z,2.60
2023-05-06T13:57:13.733Z,2.42
2023-05-06T13:59:44.156Z,2.92
2023-05-06T14:02:12.701Z,1.92
2023-05-06T14:04:39.368Z,2.00
2023-05-06T14:07:06.105Z,2.10
2023-05-06T14:09:32.565Z,1.55
2023-05-06T14:11:59.275Z,1.40
2023-05-06T14:14:27.660Z,1.75
2023-05-06T14:17:03.924Z,1.40
2023-05-06T14:19:33.069Z,1.40
2023-05-06T14:21:59.502Z,1.38
2023-05-06T14:24:26.153Z,1.80
2023-05-06T14:26:52.952Z,1.67
2023-05-06T14:29:20.976Z,1.47
2023-05-06T14:31:47.659Z,1.50
2023-05-06T14:34:14.435Z,1.10
2023-05-06T14:36:43.146Z,0.95
2023-05-06T14:39:09.619Z,1.13
2023-05-06T14:41:36.156Z,1.20
2023-05-06T14:44:02.657Z,1.20
2023-05-06T14:46:29.782Z,1.33
2023-05-06T14:48:56.651Z,1.50
2023-05-06T14:51:23.234Z,1.05
2023-05-06T14:53:51.096Z,0.70
2023-05-06T14:56:17.811Z,1.20
2023-05-06T14:58:46.124Z,1.15
2023-05-06T15:01:13.671Z,1.10
2023-05-06T15:03:40.452Z,1.40
2023-05-06T15:06:07.140Z,1.23
2023-05-06T15:08:35.361Z,1.05
2023-05-06T15:11:04.286Z,1.10
2023-05-06T15:13:31.288Z,1.00
2023-05-06T15:15:58.072Z,1.25
2023-05-06T15:18:24.698Z,1.57
2023-05-06T15:20:52.668Z,1.67
2023-05-06T15:23:20.493Z,1.00
2023-05-06T15:25:47.351Z,1.20
2023-05-06T15:28:13.872Z,1.55
2023-05-06T15:30:41.209Z,1.50
2023-05-06T15:33:08.826Z,1.42
2023-05-06T15:35:35.297Z,1.73
2023-05-06T15:38:04.711Z,1.60
2023-05-06T15:40:31.456Z,1.52
2023-05-06T15:42:58.846Z,1.87
2023-05-06T15:45:25.697Z,1.92
2023-05-06T15:47:53.006Z,2.88
2023-05-06T15:50:31.707Z,1.25
2023-05-06T15:53:01.406Z,1.85
2023-05-06T15:55:28.851Z,1.60
2023-05-06T15:57:55.628Z,0.82
2023-05-06T16:00:23.050Z,1.23
2023-05-06T16:02:51.860Z,1.42
2023-05-06T16:05:18.717Z,1.48
2023-05-06T16:07:45.489Z,1.10
2023-05-06T16:10:12.314Z,1.55
2023-05-06T16:12:41.679Z,1.35
2023-05-06T16:15:09.042Z,1.33
2023-05-06T16:17:38.586Z,1.08
2023-05-06T16:20:05.823Z,1.33
2023-05-06T16:22:32.408Z,1.52
2023-05-06T16:24:59.104Z,1.00
2023-05-06T16:27:28.256Z,0.90
2023-05-06T16:29:55.420Z,1.02
2023-05-06T16:32:22.024Z,1.10
2023-05-06T16:34:50.444Z,1.20
2023-05-06T16:37:18.055Z,1.38
2023-05-06T16:39:45.446Z,1.20
2023-05-06T16:42:12.240Z,1.42
2023-05-06T16:44:39.139Z,1.03
2023-05-06T16:47:06.022Z,0.82
2023-05-06T16:49:33.574Z,1.17
2023-05-06T16:52:00.980Z,1.00
2023-05-06T16:54:27.686Z,1.00
2023-05-06T16:56:54.523Z,1.20
2023-05-06T16:59:22.559Z,1.20
2023-05-06T17:01:50.061Z,0.82
2023-05-06T17:04:16.847Z,0.90
2023-05-06T17:06:43.437Z,0.90
2023-05-06T17:09:10.104Z,1.40
2023-05-06T17:11:36.744Z,0.70
2023-05-06T17:14:03.645Z,0.60
2023-05-06T17:16:30.624Z,1.05
2023-05-06T17:18:57.415Z,0.70
2023-05-06T17:21:25.000Z,0.90
2023-05-06T17:23:54.946Z,0.70
2023-05-06T17:26:21.882Z,0.93
2023-05-06T17:28:54.816Z,1.02
2023-05-06T17:31:21.408Z,1.10
2023-05-06T17:33:47.970Z,0.60
2023-05-06T17:36:16.825Z,1.00
2023-05-06T17:38:43.430Z,0.80
2023-05-06T17:41:10.324Z,0.90
2023-05-06T17:43:37.063Z,0.60
2023-05-06T17:46:03.729Z,0.70
2023-05-06T17:48:30.979Z,0.93
2023-05-06T17:51:02.104Z,0.82
2023-05-06T17:53:29.213Z,0.90
2023-05-06T17:55:57.516Z,0.77
2023-05-06T17:58:28.163Z,0.90
2023-05-06T18:01:10.846Z,1.13
2023-05-06T18:03:39.636Z,1.48
2023-05-06T18:06:06.966Z,1.73
2023-05-06T18:08:33.578Z,1.20
2023-05-06T18:11:00.097Z,1.23
2023-05-06T18:13:28.193Z,1.50
2023-05-06T18:15:54.740Z,1.67
2023-05-06T18:18:22.412Z,1.70
2023-05-06T18:20:49.245Z,1.90
2023-05-06T18:23:15.961Z,2.03
2023-05-06T18:25:42.592Z,2.33
2023-05-06T18:28:09.896Z,2.75
2023-05-06T18:30:36.679Z,2.42
2023-05-06T18:33:03.325Z,2.45
2023-05-06T18:35:30.184Z,2.93
2023-05-06T18:37:58.323Z,2.83
2023-05-06T18:40:24.798Z,4.10
2023-05-06T18:42:51.476Z,3.45
2023-05-06T18:45:45.540Z,3.85
2023-05-06T18:48:11.635Z,4.40
2023-05-06T18:50:41.653Z,3.53
2023-05-06T18:53:15.773Z,3.72
2023-05-06T18:55:42.225Z,3.85
2023-05-06T18:58:09.149Z,4.20
2023-05-06T19:00:38.035Z,3.93
2023-05-06T19:03:04.960Z,4.53
2023-05-06T19:05:31.703Z,4.45
2023-05-06T19:07:58.328Z,4.25
2023-05-06T19:10:25.038Z,4.93
2023-05-06T19:12:51.515Z,4.37
2023-05-06T19:15:19.978Z,4.97
2023-05-06T19:17:46.991Z,5.25
2023-05-06T19:20:14.553Z,5.18
2023-05-06T19:22:42.194Z,4.18
2023-05-06T19:25:09.484Z,5.50
2023-05-06T19:27:36.875Z,4.38
2023-05-06T19:30:04.221Z,4.55
2023-05-06T19:32:32.211Z,4.38
2023-05-06T19:35:08.272Z,4.88
2023-05-06T19:37:36.001Z,4.13
2023-05-06T19:40:04.668Z,4.68
2023-05-06T19:42:31.634Z,5.00
2023-05-06T19:45:06.737Z,5.10
2023-05-06T19:47:33.518Z,5.32
2023-05-06T19:50:00.150Z,4.67
2023-05-06T19:52:30.743Z,5.00
2023-05-06T19:54:58.791Z,4.90
2023-05-06T19:57:27.413Z,4.78
2023-05-06T19:59:54.747Z,4.45
2023-05-06T20:02:21.746Z,4.13
2023-05-06T20:04:50.720Z,4.22
2023-05-06T20:07:17.536Z,5.07
2023-05-06T20:09:50.626Z,4.88
2023-05-06T20:12:17.063Z,5.07
2023-05-06T20:14:43.648Z,4.33
2023-05-06T20:17:10.452Z,5.25
2023-05-06T20:19:37.220Z,5.15
2023-05-06T20:22:05.516Z,5.50
2023-05-06T20:24:32.423Z,5.78
2023-05-06T20:26:59.791Z,7.03
2023-05-06T20:29:27.278Z,6.68
2023-05-06T20:31:53.920Z,7.15
2023-05-06T20:34:20.856Z,6.25
2023-05-06T20:36:47.638Z,5.30
2023-05-06T20:39:14.451Z,5.03
2023-05-06T20:41:41.278Z,5.00
2023-05-06T20:44:07.827Z,5.03
2023-05-06T20:46:50.524Z,5.07
2023-05-06T20:49:17.898Z,5.55
2023-05-06T20:51:44.508Z,5.43
2023-05-06T20:54:11.054Z,5.07
2023-05-06T20:56:37.834Z,6.57
2023-05-06T20:59:04.792Z,5.82
2023-05-06T21:10:24.609Z,4.95
2023-05-06T21:13:05.095Z,5.18
2023-05-06T21:15:37.721Z,5.25
2023-05-06T21:18:09.347Z,5.97
2023-05-06T21:21:03.012Z,5.73
2023-05-06T21:24:31.067Z,5.03
2023-05-06T21:30:50.494Z,5.60
2023-05-06T21:33:21.375Z,5.93
2023-05-06T21:35:48.106Z,5.87
2023-05-06T21:38:40.159Z,6.57
2023-05-06T21:41:06.756Z,5.88
2023-05-06T21:43:33.601Z,5.38
2023-05-06T21:46:02.852Z,4.95
2023-05-06T21:48:29.653Z,5.00
2023-05-06T21:50:58.754Z,5.85
2023-05-06T21:53:25.239Z,5.10
2023-05-06T21:55:52.104Z,5.38
2023-05-06T21:58:19.731Z,5.63
2023-05-06T22:00:46.590Z,5.20
2023-05-06T22:03:13.492Z,5.47
2023-05-06T22:05:40.179Z,5.53
2023-05-06T22:08:06.716Z,5.13
2023-05-06T22:10:38.386Z,5.07
2023-05-06T22:13:04.995Z,5.07
2023-05-06T22:15:31.431Z,5.03
2023-05-06T22:17:58.980Z,5.57
2023-05-06T22:20:25.502Z,5.60
2023-05-06T22:22:52.656Z,5.68
2023-05-06T22:25:19.284Z,6.00
2023-05-06T22:27:45.690Z,6.03
2023-05-06T22:30:20.974Z,6.13
2023-05-06T22:32:50.686Z,6.35
2023-05-06T22:35:18.712Z,6.80
2023-05-06T22:37:46.538Z,5.70
2023-05-06T22:40:15.908Z,5.68
2023-05-06T22:42:42.377Z,6.10
2023-05-06T22:45:10.167Z,5.60
2023-05-06T22:47:36.730Z,6.70
2023-05-06T22:50:03.388Z,6.37
2023-05-06T22:52:29.939Z,5.80
2023-05-06T22:54:56.764Z,5.63
2023-05-06T22:57:25.223Z,5.93
2023-05-06T22:59:52.071Z,5.82
2023-05-06T23:02:19.768Z,5.67
2023-05-06T23:04:46.369Z,5.45
2023-05-06T23:07:14.006Z,5.72
2023-05-06T23:09:40.776Z,5.05
2023-05-06T23:12:07.578Z,5.30
2023-05-06T23:14:34.291Z,5.07
2023-05-06T23:17:00.805Z,5.10
2023-05-06T23:19:27.337Z,5.28
2023-05-06T23:21:53.784Z,5.40
2023-05-06T23:24:20.326Z,4.65
2023-05-06T23:26:46.831Z,5.10
2023-05-06T23:29:13.510Z,5.07
2023-05-06T23:31:40.052Z,4.15
2023-05-06T23:34:06.601Z,4.15
2023-05-06T23:36:34.051Z,4.47
2023-05-06T23:39:00.468Z,3.83
2023-05-06T23:41:27.040Z,4.40
2023-05-06T23:43:53.455Z,4.78
2023-05-06T23:46:20.061Z,4.15
2023-05-06T23:48:46.564Z,4.03
2023-05-06T23:51:13.191Z,4.13
2023-05-06T23:53:40.255Z,4.88
2023-05-06T23:56:07.065Z,4.18
2023-05-06T23:58:33.653Z,3.72
